Time;durP1;ratioP1;P1;durP2;ratioP2;P2;SDS_P1;SDS_P2;PMS_P1;PMS_P2;Temp;Humidity;BMP_temperature;BMP_pressure;BME280_temperature;BME280_humidity;BME280_pressure;Samples;Min_cycle;Max_cycle;Signal;HPM_P1;HPM_P2
2021/11/29 00:01:33;;;;;;;7.70;0.68;;;1.40;99.90;;;;;;5055684;28;20036;-65
2021/11/29 00:03:59;;;;;;;4.72;0.90;;;1.40;99.90;;;;;;5090236;28;20064;-66
2021/11/29 00:06:25;;;;;;;10.55;0.80;;;1.50;99.90;;;;;;5057458;28;20497;-66
2021/11/29 00:08:51;;;;;;;5.65;0.50;;;1.50;99.90;;;;;;5057692;28;20032;-65
2021/11/29 00:11:16;;;;;;;7.10;0.50;;;1.50;99.90;;;;;;5061188;28;20079;-65
2021/11/29 00:13:42;;;;;;;5.55;0.63;;;1.50;99.90;;;;;;5060120;28;20491;-66
2021/11/29 00:16:08;;;;;;;5.75;0.50;;;1.50;99.90;;;;;;5059639;28;20040;-66
2021/11/29 00:18:34;;;;;;;5.15;0.40;;;1.60;99.90;;;;;;5065048;28;20409;-66
2021/11/29 00:21:00;;;;;;;10.20;0.70;;;1.50;99.90;;;;;;5055130;28;20040;-66
2021/11/29 00:23:27;;;;;;;3.97;0.50;;;1.50;99.90;;;;;;5093654;28;20047;-66
2021/11/29 00:25:52;;;;;;;4.75;0.70;;;1.50;99.90;;;;;;5089822;28;20040;-65
2021/11/29 00:28:18;;;;;;;7.20;0.65;;;1.50;99.90;;;;;;5056343;28;20042;-66
2021/11/29 00:30:44;;;;;;;8.45;1.48;;;1.50;99.90;;;;;;5060706;28;20199;-66
2021/11/29 00:33:11;;;;;;;6.45;0.50;;;1.50;99.90;;;;;;5060291;28;20454;-65
2021/11/29 00:35:37;;;;;;;11.02;0.70;;;1.50;99.90;;;;;;5057932;28;20047;-65
2021/11/29 00:38:05;;;;;;;6.78;0.70;;;1.50;99.90;;;;;;5055737;28;20059;-66
2021/11/29 00:40:31;;;;;;;5.75;0.52;;;1.50;99.90;;;;;;5057135;28;20517;-66
2021/11/29 00:42:57;;;;;;;6.43;0.50;;;1.50;99.90;;;;;;5090898;28;20502;-66
2021/11/29 00:45:22;;;;;;;7.25;0.93;;;1.50;99.90;;;;;;5060347;28;20051;-66
2021/11/29 00:47:49;;;;;;;5.13;0.50;;;1.50;99.90;;;;;;5059024;28;20040;-66
2021/11/29 00:50:15;;;;;;;5.43;0.52;;;1.60;99.90;;;;;;5057947;28;20071;-66
2021/11/29 00:52:42;;;;;;;4.28;0.68;;;1.50;99.90;;;;;;5058793;28;20043;-66
2021/11/29 00:55:09;;;;;;;5.45;0.88;;;1.50;99.90;;;;;;5054419;28;20037;-65
2021/11/29 00:57:35;;;;;;;5.07;0.43;;;1.50;99.90;;;;;;5057057;28;20036;-65
2021/11/29 01:00:00;;;;;;;6.22;0.73;;;1.60;99.90;;;;;;5059378;28;20037;-65
2021/11/29 01:02:26;;;;;;;1.63;0.30;;;1.60;99.90;;;;;;5057450;28;20540;-66
2021/11/29 01:04:52;;;;;;;5.35;0.90;;;1.50;99.90;;;;;;5059274;28;20044;-65
2021/11/29 01:07:17;;;;;;;11.07;0.73;;;1.60;99.90;;;;;;5074991;28;20040;-65
2021/11/29 01:09:43;;;;;;;5.18;0.47;;;1.70;99.90;;;;;;5057988;28;20505;-66
2021/11/29 01:12:09;;;;;;;4.55;0.85;;;1.60;99.90;;;;;;5057761;28;20098;-66
2021/11/29 01:14:35;;;;;;;7.22;0.50;;;1.70;99.90;;;;;;5059342;28;20041;-66
2021/11/29 01:17:01;;;;;;;3.90;1.05;;;1.70;99.90;;;;;;5060868;28;20047;-66
2021/11/29 01:19:27;;;;;;;4.82;0.40;;;1.80;99.90;;;;;;5021841;28;1075339;-66
2021/11/29 01:21:52;;;;;;;3.47;0.45;;;1.80;99.90;;;;;;5057853;28;20043;-65
2021/11/29 01:24:18;;;;;;;3.20;0.43;;;1.80;99.90;;;;;;5060117;28;20106;-65
2021/11/29 01:26:44;;;;;;;7.28;0.40;;;1.90;99.90;;;;;;5058739;28;20036;-65
2021/11/29 01:29:09;;;;;;;6.60;0.40;;;1.90;99.90;;;;;;5057047;28;20095;-66
2021/11/29 01:31:35;;;;;;;8.00;0.70;;;1.90;99.90;;;;;;5061577;28;20094;-66
2021/11/29 01:34:00;;;;;;;4.72;0.45;;;1.90;99.90;;;;;;5059569;28;20036;-65
2021/11/29 01:36:26;;;;;;;6.38;0.70;;;1.90;99.90;;;;;;5057576;28;20041;-66
2021/11/29 01:38:52;;;;;;;4.70;0.70;;;2.00;99.90;;;;;;5090241;28;20110;-66
2021/11/29 01:41:17;;;;;;;3.22;0.40;;;1.90;99.90;;;;;;5057838;28;20128;-66
2021/11/29 01:43:44;;;;;;;7.07;1.27;;;2.00;99.90;;;;;;5059159;28;20107;-66
2021/11/29 01:46:10;;;;;;;8.60;0.40;;;2.00;99.90;;;;;;5055627;28;20431;-66
2021/11/29 01:48:36;;;;;;;7.13;0.38;;;2.00;99.90;;;;;;5055010;28;20047;-66
2021/11/29 01:51:03;;;;;;;3.58;0.40;;;2.00;99.90;;;;;;5058936;28;20098;-66
2021/11/29 01:53:30;;;;;;;5.28;0.70;;;2.00;99.90;;;;;;5060073;28;20049;-65
2021/11/29 01:55:58;;;;;;;5.65;0.52;;;2.00;99.90;;;;;;5054664;28;20124;-66
2021/11/29 01:58:28;;;;;;;3.92;0.45;;;2.10;99.90;;;;;;5089072;28;20049;-66
2021/11/29 02:00:57;;;;;;;5.07;0.30;;;2.10;99.90;;;;;;5057852;28;20443;-66
2021/11/29 02:03:24;;;;;;;5.63;0.30;;;2.10;99.90;;;;;;5059160;28;20052;-66
2021/11/29 02:05:51;;;;;;;2.72;0.30;;;2.10;99.90;;;;;;5059943;28;20048;-66
2021/11/29 02:08:18;;;;;;;4.80;0.40;;;2.10;99.90;;;;;;5059149;28;20499;-66
2021/11/29 02:10:43;;;;;;;2.25;0.28;;;2.20;99.90;;;;;;5060091;28;20052;-66
2021/11/29 02:13:10;;;;;;;4.68;0.68;;;2.30;99.90;;;;;;5059406;28;20760;-65
2021/11/29 02:15:37;;;;;;;6.93;0.47;;;2.30;99.90;;;;;;5057510;28;20123;-65
2021/11/29 02:18:04;;;;;;;2.20;0.30;;;2.30;99.90;;;;;;5061866;28;20528;-65
2021/11/29 02:20:31;;;;;;;3.45;0.50;;;2.30;99.90;;;;;;5042782;28;20048;-65
2021/11/29 02:22:59;;;;;;;1.30;0.17;;;2.50;99.90;;;;;;5062839;28;20048;-65
2021/11/29 02:25:24;;;;;;;4.07;0.30;;;2.30;99.90;;;;;;5065656;28;20102;-66
2021/11/29 02:27:51;;;;;;;1.77;0.10;;;2.30;99.90;;;;;;5062513;28;20402;-66
2021/11/29 02:30:20;;;;;;;1.52;0.10;;;2.20;99.90;;;;;;5060176;28;20127;-65
2021/11/29 02:32:46;;;;;;;1.88;0.10;;;2.30;99.90;;;;;;5096568;28;20089;-65
2021/11/29 02:35:12;;;;;;;1.50;0.20;;;2.30;99.90;;;;;;5057689;28;20044;-65
2021/11/29 02:37:38;;;;;;;2.72;0.20;;;2.40;99.90;;;;;;5061253;28;20541;-65
2021/11/29 02:40:05;;;;;;;2.35;0.40;;;2.40;99.90;;;;;;5059416;28;20494;-65
2021/11/29 02:42:30;;;;;;;5.43;0.20;;;2.50;99.90;;;;;;5060989;28;20082;-66
2021/11/29 02:44:56;;;;;;;5.13;1.27;;;2.50;99.90;;;;;;5062942;28;20064;-66
2021/11/29 02:47:22;;;;;;;2.58;0.20;;;2.50;99.90;;;;;;5061335;28;20041;-65
2021/11/29 02:49:48;;;;;;;5.47;0.17;;;2.50;99.90;;;;;;5066999;28;20066;-65
2021/11/29 02:52:16;;;;;;;4.57;0.30;;;2.60;99.90;;;;;;5061408;28;20045;-65
2021/11/29 02:54:43;;;;;;;6.55;0.88;;;2.60;99.90;;;;;;5063449;28;20048;-65
2021/11/29 02:57:20;;;;;;;5.15;1.30;;;2.70;99.90;;;;;;5060602;28;20379;-65
2021/11/29 02:59:46;;;;;;;2.67;0.40;;;2.60;99.90;;;;;;5062625;28;20089;-66
2021/11/29 03:02:16;;;;;;;9.52;0.40;;;2.60;99.90;;;;;;5060043;28;20036;-65
2021/11/29 03:04:43;;;;;;;3.83;0.50;;;2.60;99.90;;;;;;5055770;28;20095;-66
2021/11/29 03:07:09;;;;;;;3.20;0.40;;;2.60;99.90;;;;;;5061902;28;20462;-65
2021/11/29 03:09:35;;;;;;;2.25;0.30;;;2.70;99.90;;;;;;5060456;28;20487;-65
2021/11/29 03:12:03;;;;;;;5.35;0.35;;;2.60;99.90;;;;;;5064970;28;20040;-65
2021/11/29 03:14:28;;;;;;;3.45;0.28;;;2.70;99.90;;;;;;5074913;28;20094;-66
2021/11/29 03:16:56;;;;;;;4.25;0.40;;;2.60;99.90;;;;;;5060854;28;20395;-65
2021/11/29 03:19:23;;;;;;;3.58;0.20;;;2.60;99.90;;;;;;5058368;28;20078;-65
2021/11/29 03:21:49;;;;;;;5.07;0.30;;;2.60;99.90;;;;;;5058386;28;20621;-65
2021/11/29 03:24:15;;;;;;;4.05;0.45;;;2.70;99.90;;;;;;5063115;28;20155;-66
2021/11/29 03:26:40;;;;;;;5.30;0.45;;;2.60;99.90;;;;;;5061128;28;20724;-65
2021/11/29 03:29:09;;;;;;;5.78;0.30;;;2.60;99.90;;;;;;5063348;28;20363;-65
2021/11/29 03:31:35;;;;;;;2.30;0.30;;;2.60;99.90;;;;;;5057499;28;20119;-65
2021/11/29 03:34:04;;;;;;;1.25;0.20;;;2.70;99.90;;;;;;5059481;28;20040;-65
2021/11/29 03:36:32;;;;;;;2.88;0.25;;;2.70;99.90;;;;;;5097070;28;20045;-66
2021/11/29 03:38:59;;;;;;;2.78;0.30;;;2.60;99.90;;;;;;5093792;28;20041;-65
2021/11/29 03:41:28;;;;;;;6.32;0.25;;;2.60;99.90;;;;;;5061199;28;20151;-65
2021/11/29 03:43:54;;;;;;;3.47;0.30;;;2.60;99.90;;;;;;5060045;28;20398;-66
2021/11/29 03:46:20;;;;;;;1.42;0.20;;;2.60;99.90;;;;;;5058623;28;20044;-65
2021/11/29 03:48:46;;;;;;;3.90;0.30;;;2.60;99.90;;;;;;5060855;28;20032;-65
2021/11/29 03:51:12;;;;;;;3.72;0.20;;;2.60;99.90;;;;;;5063008;28;20037;-65
2021/11/29 03:53:37;;;;;;;7.18;1.02;;;2.60;99.90;;;;;;5059713;28;20517;-65
2021/11/29 03:56:04;;;;;;;3.30;0.13;;;2.60;99.90;;;;;;5060635;28;20082;-65
2021/11/29 03:58:29;;;;;;;5.47;0.10;;;2.70;99.90;;;;;;5062228;28;20044;-65
2021/11/29 04:00:55;;;;;;;2.58;0.30;;;2.70;99.90;;;;;;5065168;28;20036;-66
2021/11/29 04:03:21;;;;;;;2.45;0.17;;;2.70;99.90;;;;;;5061729;28;20040;-65
2021/11/29 04:05:47;;;;;;;4.63;0.30;;;2.70;99.90;;;;;;5091990;28;20055;-65
2021/11/29 04:08:12;;;;;;;7.25;0.20;;;2.70;99.90;;;;;;5058401;28;20053;-65
2021/11/29 04:10:38;;;;;;;1.17;0.28;;;2.80;99.90;;;;;;5058382;28;20040;-65
2021/11/29 04:13:04;;;;;;;4.97;0.20;;;2.90;99.90;;;;;;5061620;28;20033;-65
2021/11/29 04:15:29;;;;;;;1.50;0.20;;;2.80;99.90;;;;;;5060775;28;20041;-65
2021/11/29 04:17:55;;;;;;;1.85;0.30;;;2.80;99.90;;;;;;5059693;28;20115;-65
2021/11/29 04:20:21;;;;;;;2.25;0.20;;;2.90;99.90;;;;;;5060894;28;20040;-66
2021/11/29 04:22:47;;;;;;;4.38;0.17;;;2.80;99.90;;;;;;5060944;28;20396;-65
2021/11/29 04:25:19;;;;;;;2.55;0.20;;;2.80;99.90;;;;;;5060495;28;20106;-65
2021/11/29 04:27:46;;;;;;;4.93;0.28;;;2.90;99.90;;;;;;5064904;28;20043;-65
2021/11/29 04:30:17;;;;;;;1.05;0.20;;;2.80;99.90;;;;;;5063109;28;21439;-66
2021/11/29 04:32:44;;;;;;;3.40;0.85;;;2.80;99.90;;;;;;5049184;28;20047;-65
2021/11/29 04:35:11;;;;;;;4.18;0.30;;;2.90;99.90;;;;;;5062249;28;20084;-66
2021/11/29 04:37:38;;;;;;;7.00;0.22;;;2.90;99.90;;;;;;5058322;28;20037;-65
2021/11/29 04:40:05;;;;;;;3.70;0.20;;;3.00;99.90;;;;;;5089474;28;20075;-65
2021/11/29 04:42:30;;;;;;;5.03;0.20;;;2.90;99.90;;;;;;5059272;28;20032;-66
2021/11/29 04:44:56;;;;;;;3.65;0.20;;;3.00;99.90;;;;;;5062165;28;20487;-66
2021/11/29 04:47:22;;;;;;;5.55;0.30;;;3.00;99.90;;;;;;5059958;28;20040;-66
2021/11/29 04:49:47;;;;;;;2.63;0.17;;;3.00;99.90;;;;;;5061743;28;20064;-65
2021/11/29 04:52:13;;;;;;;5.38;0.38;;;3.00;99.90;;;;;;5063248;28;20043;-65
2021/11/29 04:54:39;;;;;;;2.95;0.10;;;3.10;99.90;;;;;;5059651;28;20035;-66
2021/11/29 04:57:04;;;;;;;3.33;0.60;;;3.10;99.90;;;;;;5095859;28;20414;-66
2021/11/29 04:59:30;;;;;;;1.83;0.10;;;3.10;99.90;;;;;;5058292;28;20433;-65
2021/11/29 05:01:56;;;;;;;3.22;0.20;;;3.10;99.90;;;;;;5062317;28;20131;-66
2021/11/29 05:04:22;;;;;;;1.60;0.10;;;3.10;99.90;;;;;;5061372;28;20040;-66
2021/11/29 05:06:48;;;;;;;3.75;0.30;;;3.10;99.90;;;;;;5062380;28;20033;-66
2021/11/29 05:09:13;;;;;;;2.78;0.20;;;3.10;99.90;;;;;;5062336;28;20040;-66
2021/11/29 05:11:39;;;;;;;2.67;0.10;;;3.10;99.90;;;;;;5061295;28;20124;-65
2021/11/29 05:14:05;;;;;;;5.68;0.30;;;3.20;99.90;;;;;;5060630;28;20053;-66
2021/11/29 05:16:32;;;;;;;5.55;0.43;;;3.20;99.90;;;;;;5057850;28;20044;-66
2021/11/29 05:18:58;;;;;;;2.05;0.13;;;3.20;99.90;;;;;;5055497;28;20047;-65
2021/11/29 05:21:25;;;;;;;1.95;0.10;;;3.10;99.90;;;;;;5069708;28;20559;-65
2021/11/29 05:23:51;;;;;;;4.50;0.20;;;3.10;99.90;;;;;;5058937;28;20478;-66
2021/11/29 05:26:25;;;;;;;3.15;0.45;;;3.10;99.90;;;;;;5056767;28;20079;-66
2021/11/29 05:28:52;;;;;;;2.38;0.20;;;3.10;99.90;;;;;;5054803;28;20094;-66
2021/11/29 05:31:19;;;;;;;1.38;0.10;;;3.00;99.90;;;;;;5061859;28;20044;-66
2021/11/29 05:33:45;;;;;;;3.53;0.13;;;3.00;99.90;;;;;;5058561;28;20567;-66
2021/11/29 05:36:11;;;;;;;2.22;0.10;;;3.10;99.90;;;;;;5057758;28;20390;-66
2021/11/29 05:38:37;;;;;;;3.78;0.10;;;3.10;99.90;;;;;;5059100;28;20053;-66
2021/11/29 05:41:03;;;;;;;4.47;0.10;;;3.00;99.90;;;;;;5057375;28;20126;-66
2021/11/29 05:43:29;;;;;;;0.60;0.10;;;3.10;99.90;;;;;;5055222;28;20444;-66
2021/11/29 05:45:57;;;;;;;2.60;0.38;;;3.10;99.90;;;;;;5058565;28;20040;-66
2021/11/29 05:48:22;;;;;;;3.22;0.17;;;3.10;99.90;;;;;;5064029;28;20040;-66
2021/11/29 05:50:48;;;;;;;2.05;0.10;;;3.20;99.90;;;;;;5062799;28;20078;-66
2021/11/29 05:53:14;;;;;;;2.28;0.25;;;3.00;99.90;;;;;;5062902;28;20123;-66
2021/11/29 05:55:39;;;;;;;0.85;0.10;;;3.00;99.90;;;;;;5062651;28;20028;-66
2021/11/29 05:58:05;;;;;;;2.80;0.60;;;3.00;99.90;;;;;;5095169;28;20040;-66
2021/11/29 06:00:31;;;;;;;2.22;0.20;;;3.00;99.90;;;;;;5064593;28;20037;-66
2021/11/29 06:02:57;;;;;;;2.90;0.20;;;3.00;99.90;;;;;;5060806;28;20495;-66
2021/11/29 06:05:24;;;;;;;1.20;0.10;;;2.90;99.90;;;;;;5062333;28;20659;-66
2021/11/29 06:07:50;;;;;;;1.60;0.20;;;2.90;99.90;;;;;;5061261;28;20045;-66
2021/11/29 06:10:15;;;;;;;2.78;0.20;;;2.90;99.90;;;;;;5061386;28;20037;-66
2021/11/29 06:12:46;;;;;;;4.32;0.28;;;2.90;99.90;;;;;;5094375;28;20436;-66
2021/11/29 06:15:14;;;;;;;2.08;0.10;;;2.80;99.90;;;;;;5066117;28;20055;-66
2021/11/29 06:17:40;;;;;;;1.58;0.10;;;2.80;99.90;;;;;;5061820;28;20041;-66
2021/11/29 06:20:07;;;;;;;2.13;0.10;;;2.80;99.90;;;;;;5060803;28;20037;-66
2021/11/29 06:22:33;;;;;;;1.73;0.20;;;2.80;99.90;;;;;;5061722;28;20043;-66
2021/11/29 06:24:59;;;;;;;1.17;0.10;;;2.90;99.90;;;;;;5059851;28;20032;-66
2021/11/29 06:27:25;;;;;;;0.68;0.10;;;2.80;99.90;;;;;;5060884;28;20029;-66
2021/11/29 06:29:53;;;;;;;0.20;0.10;;;2.80;99.90;;;;;;5060305;28;20086;-66
2021/11/29 06:32:19;;;;;;;0.52;0.10;;;2.80;99.90;;;;;;5063493;28;20045;-66
2021/11/29 06:34:45;;;;;;;2.58;0.30;;;2.80;99.90;;;;;;5062464;28;20379;-66
2021/11/29 06:37:11;;;;;;;1.55;0.20;;;2.80;99.90;;;;;;5061223;28;20128;-66
2021/11/29 06:39:38;;;;;;;2.70;0.20;;;2.70;99.90;;;;;;5059550;28;20036;-66
2021/11/29 06:42:05;;;;;;;1.65;0.30;;;2.80;99.90;;;;;;5063116;28;20037;-65
2021/11/29 06:44:31;;;;;;;1.00;0.20;;;2.70;99.90;;;;;;5058029;28;20040;-66
2021/11/29 06:46:57;;;;;;;3.45;0.17;;;2.70;99.90;;;;;;5061935;28;20055;-66
2021/11/29 06:49:22;;;;;;;2.35;0.20;;;2.70;99.90;;;;;;5062065;28;20437;-66
2021/11/29 06:51:49;;;;;;;2.17;0.20;;;2.70;99.90;;;;;;5060415;28;20037;-66
2021/11/29 06:54:15;;;;;;;2.75;0.10;;;2.70;99.90;;;;;;5062055;28;20131;-66
2021/11/29 06:56:41;;;;;;;0.43;0.10;;;2.70;99.90;;;;;;5059080;28;20136;-66
2021/11/29 06:59:08;;;;;;;1.75;0.13;;;2.70;99.90;;;;;;5095337;28;20128;-66
2021/11/29 07:01:34;;;;;;;4.22;0.17;;;2.70;99.90;;;;;;5059784;28;20183;-66
2021/11/29 07:04:00;;;;;;;1.48;0.10;;;2.60;99.90;;;;;;5059099;28;20582;-66
2021/11/29 07:06:27;;;;;;;1.20;0.10;;;2.60;99.90;;;;;;5091014;28;20056;-66
2021/11/29 07:08:53;;;;;;;4.07;0.32;;;2.60;99.90;;;;;;5060213;28;20036;-66
2021/11/29 07:11:20;;;;;;;1.63;0.30;;;2.60;99.90;;;;;;5057191;28;20072;-66
2021/11/29 07:13:46;;;;;;;2.05;0.20;;;2.60;99.90;;;;;;5059173;28;20468;-66
2021/11/29 07:16:12;;;;;;;0.85;0.10;;;2.60;99.90;;;;;;5076463;28;20131;-66
2021/11/29 07:18:37;;;;;;;1.38;0.20;;;2.60;99.90;;;;;;5060078;28;20064;-66
2021/11/29 07:21:04;;;;;;;1.80;0.13;;;2.60;99.90;;;;;;5091895;28;20110;-66
2021/11/29 07:23:30;;;;;;;1.13;0.30;;;2.60;99.90;;;;;;5057231;28;20185;-66
2021/11/29 07:25:55;;;;;;;5.03;0.28;;;2.50;99.90;;;;;;5065135;28;20127;-66
2021/11/29 07:28:21;;;;;;;1.13;0.13;;;2.50;99.90;;;;;;5061289;28;21728;-66
2021/11/29 07:30:47;;;;;;;1.80;0.20;;;2.40;99.90;;;;;;5059538;28;20391;-66
2021/11/29 07:33:12;;;;;;;3.50;0.10;;;2.50;99.90;;;;;;5058366;28;20399;-66
2021/11/29 07:35:38;;;;;;;3.55;0.65;;;2.50;99.90;;;;;;5073612;28;20045;-66
2021/11/29 07:38:04;;;;;;;1.90;0.52;;;2.40;99.90;;;;;;5058773;28;20033;-65
2021/11/29 07:40:31;;;;;;;0.70;0.20;;;2.30;99.90;;;;;;5058802;28;20045;-66
2021/11/29 07:43:00;;;;;;;3.75;0.20;;;2.30;99.90;;;;;;5057938;28;20041;-66
2021/11/29 07:45:25;;;;;;;6.70;0.47;;;2.30;99.90;;;;;;5060376;28;20512;-66
2021/11/29 07:47:51;;;;;;;2.53;0.20;;;2.30;99.90;;;;;;5060449;28;20040;-66
2021/11/29 07:50:19;;;;;;;7.45;0.30;;;2.10;99.90;;;;;;5064029;28;20089;-66
2021/11/29 07:52:47;;;;;;;0.95;0.20;;;2.10;99.90;;;;;;5059287;28;20041;-66
2021/11/29 07:55:15;;;;;;;1.10;0.20;;;2.10;99.90;;;;;;5060559;28;20043;-66
2021/11/29 07:57:42;;;;;;;1.67;0.20;;;2.10;99.90;;;;;;5089857;28;20051;-66
2021/11/29 08:00:12;;;;;;;0.35;0.20;;;2.10;99.90;;;;;;5057959;28;20120;-66
2021/11/29 08:02:37;;;;;;;1.17;0.82;;;2.10;99.90;;;;;;5057370;28;20032;-66
2021/11/29 08:05:04;;;;;;;2.13;0.30;;;2.10;99.90;;;;;;5057826;28;20085;-65
2021/11/29 08:07:29;;;;;;;0.50;0.20;;;2.10;99.90;;;;;;5058348;28;20074;-66
2021/11/29 08:09:55;;;;;;;0.75;0.28;;;2.20;99.90;;;;;;5059870;28;20064;-65
2021/11/29 08:12:21;;;;;;;0.82;0.20;;;2.20;99.90;;;;;;5058868;28;20036;-65
2021/11/29 08:14:47;;;;;;;0.40;0.20;;;2.20;99.90;;;;;;5055949;28;20037;-65
2021/11/29 08:17:13;;;;;;;0.40;0.20;;;2.30;99.90;;;;;;5059826;28;20044;-65
2021/11/29 08:19:38;;;;;;;0.77;0.47;;;2.20;99.90;;;;;;5057797;28;20082;-65
2021/11/29 08:22:04;;;;;;;0.95;0.20;;;2.30;99.90;;;;;;5059755;28;20028;-65
2021/11/29 08:24:30;;;;;;;3.13;0.70;;;2.30;99.90;;;;;;5058298;28;20038;-65
2021/11/29 08:26:55;;;;;;;1.27;0.40;;;2.30;99.90;;;;;;5060679;28;20037;-65
2021/11/29 08:29:21;;;;;;;5.13;0.52;;;2.30;99.90;;;;;;5060088;28;20044;-65
2021/11/29 08:31:47;;;;;;;1.45;0.40;;;2.30;99.90;;;;;;5054282;28;20075;-65
2021/11/29 08:34:14;;;;;;;8.00;1.50;;;2.30;99.90;;;;;;5058004;28;20166;-65
2021/11/29 08:36:39;;;;;;;1.25;0.32;;;2.30;99.90;;;;;;5057180;28;20040;-65
2021/11/29 08:39:12;;;;;;;3.65;0.68;;;2.40;99.90;;;;;;5089246;28;20048;-65
2021/11/29 08:41:38;;;;;;;2.10;0.68;;;2.40;99.90;;;;;;5054938;28;20645;-65
2021/11/29 08:44:04;;;;;;;1.73;0.50;;;2.50;99.90;;;;;;5091453;28;20127;-65
2021/11/29 08:46:31;;;;;;;1.25;0.70;;;2.50;99.90;;;;;;5057517;28;20131;-65
2021/11/29 08:48:57;;;;;;;2.60;0.60;;;2.50;99.90;;;;;;5056346;28;20406;-65
2021/11/29 08:51:23;;;;;;;4.43;0.40;;;2.60;99.90;;;;;;5057657;28;20044;-65
2021/11/29 08:53:49;;;;;;;1.30;0.52;;;2.60;99.90;;;;;;5088224;28;20055;-65
2021/11/29 08:56:16;;;;;;;2.83;0.68;;;2.60;99.90;;;;;;5058065;28;20097;-65
2021/11/29 08:58:42;;;;;;;3.45;1.10;;;2.70;99.90;;;;;;5056445;28;20046;-65
2021/11/29 09:01:08;;;;;;;5.18;0.80;;;2.70;99.90;;;;;;5058098;28;20044;-65
2021/11/29 09:03:33;;;;;;;2.13;1.00;;;2.80;99.90;;;;;;5056271;28;20040;-65
2021/11/29 09:06:00;;;;;;;2.78;1.00;;;2.80;99.90;;;;;;5056472;28;20039;-65
2021/11/29 09:08:27;;;;;;;2.72;0.98;;;2.90;99.90;;;;;;5087654;28;20202;-66
2021/11/29 09:10:53;;;;;;;1.98;1.17;;;2.90;99.90;;;;;;5055585;28;20579;-65
2021/11/29 09:13:19;;;;;;;2.13;1.23;;;2.90;99.90;;;;;;5055991;28;20166;-66
2021/11/29 09:15:47;;;;;;;9.35;1.85;;;3.00;99.90;;;;;;5055131;28;20044;-65
2021/11/29 09:18:14;;;;;;;5.38;1.30;;;3.00;99.90;;;;;;5055648;28;20048;-65
2021/11/29 09:20:41;;;;;;;4.47;3.15;;;3.00;99.90;;;;;;5054823;28;20072;-65
2021/11/29 09:23:11;;;;;;;3.70;1.23;;;3.00;99.90;;;;;;5056405;28;20503;-65
2021/11/29 09:25:41;;;;;;;2.00;0.98;;;3.10;99.90;;;;;;5060245;28;21342;-65
2021/11/29 09:28:09;;;;;;;1.52;0.63;;;3.10;99.90;;;;;;5063129;28;20119;-65
2021/11/29 09:30:36;;;;;;;1.63;0.95;;;3.10;99.90;;;;;;5058211;28;20542;-65
2021/11/29 09:33:02;;;;;;;3.88;1.92;;;3.10;99.90;;;;;;5059556;28;20463;-66
2021/11/29 09:35:28;;;;;;;2.40;1.20;;;3.20;99.90;;;;;;5061499;28;20044;-66
2021/11/29 09:37:55;;;;;;;8.50;1.40;;;3.30;99.90;;;;;;5059656;28;20040;-65
2021/11/29 09:40:29;;;;;;;6.32;1.70;;;3.30;99.90;;;;;;5058552;28;20044;-65
2021/11/29 09:42:55;;;;;;;1.92;1.52;;;3.30;99.90;;;;;;5062138;28;20049;-65
2021/11/29 09:45:23;;;;;;;2.72;1.60;;;3.30;99.90;;;;;;5059428;28;20105;-66
2021/11/29 09:47:50;;;;;;;2.67;1.70;;;3.40;99.90;;;;;;5061371;28;20051;-65
2021/11/29 09:50:17;;;;;;;3.90;1.70;;;3.50;99.90;;;;;;5058847;28;20694;-65
2021/11/29 09:52:44;;;;;;;4.15;2.50;;;3.50;99.90;;;;;;5063506;28;20044;-65
2021/11/29 09:55:13;;;;;;;4.20;2.50;;;3.60;99.90;;;;;;5062926;28;20052;-66
2021/11/29 09:57:41;;;;;;;5.03;2.30;;;3.60;99.90;;;;;;5065148;28;20063;-65
2021/11/29 10:00:12;;;;;;;4.93;3.10;;;3.70;99.90;;;;;;5061602;28;20040;-65
2021/11/29 10:02:37;;;;;;;7.55;2.78;;;3.80;99.90;;;;;;5062470;28;20087;-66
2021/11/29 10:05:03;;;;;;;4.60;2.72;;;4.10;99.90;;;;;;5064911;28;20505;-66
2021/11/29 10:07:47;;;;;;;4.15;2.95;;;4.40;99.90;;;;;;5063650;28;20465;-66
2021/11/29 10:10:25;;;;;;;3.17;2.53;;;4.70;99.90;;;;;;5060732;28;20062;-66
2021/11/29 10:13:00;;;;;;;2.70;2.17;;;5.00;99.90;;;;;;5059868;28;20049;-66
2021/11/29 10:15:33;;;;;;;6.20;2.53;;;5.20;99.90;;;;;;5078749;28;20057;-66
2021/11/29 10:18:15;;;;;;;4.75;2.58;;;5.30;99.90;;;;;;5060542;28;20126;-66
2021/11/29 10:21:06;;;;;;;3.88;2.65;;;5.40;99.90;;;;;;5063642;28;20056;-66
2021/11/29 10:23:39;;;;;;;6.05;2.50;;;5.50;99.90;;;;;;5060415;28;20037;-66
2021/11/29 10:26:45;;;;;;;3.90;3.20;;;5.70;99.90;;;;;;5062454;28;20052;-66
2021/11/29 10:29:13;;;;;;;3.80;2.63;;;5.80;99.90;;;;;;5058254;28;20178;-66
2021/11/29 10:31:48;;;;;;;4.50;3.13;;;6.00;99.90;;;;;;5062734;28;20041;-66
2021/11/29 10:34:17;;;;;;;2.67;2.47;;;6.00;99.90;;;;;;5062146;28;20040;-66
2021/11/29 10:36:52;;;;;;;4.55;2.80;;;6.00;99.90;;;;;;5060307;28;20049;-66
2021/11/29 10:39:30;;;;;;;3.75;2.15;;;6.10;99.90;;;;;;5061434;28;20036;-66
2021/11/29 10:42:05;;;;;;;5.47;3.25;;;6.20;99.90;;;;;;5062060;28;20217;-66
2021/11/29 10:44:36;;;;;;;4.40;2.85;;;6.10;99.90;;;;;;5059915;28;20144;-66
2021/11/29 10:47:07;;;;;;;3.28;2.88;;;6.10;99.90;;;;;;5060206;28;22590;-66
2021/11/29 10:49:37;;;;;;;5.47;3.38;;;6.10;99.90;;;;;;5061309;28;20163;-66
2021/11/29 10:52:04;;;;;;;4.07;2.75;;;6.10;99.90;;;;;;5061388;28;20052;-66
2021/11/29 10:54:32;;;;;;;4.53;3.53;;;6.10;99.90;;;;;;5063705;28;20507;-66
2021/11/29 10:57:00;;;;;;;5.30;3.13;;;6.00;99.90;;;;;;5061634;28;20052;-66
2021/11/29 10:59:35;;;;;;;7.82;3.15;;;6.10;99.90;;;;;;5063572;28;20044;-66
2021/11/29 11:02:04;;;;;;;5.20;3.40;;;6.00;99.90;;;;;;5092284;28;20474;-66
2021/11/29 11:04:33;;;;;;;3.40;3.10;;;6.10;99.90;;;;;;5090027;28;20044;-66
2021/11/29 11:07:04;;;;;;;3.00;2.72;;;6.10;99.90;;;;;;5062530;28;20055;-66
2021/11/29 11:09:33;;;;;;;3.45;2.92;;;6.10;99.90;;;;;;5062038;28;20051;-66
2021/11/29 11:12:01;;;;;;;3.83;2.83;;;6.00;99.90;;;;;;5061767;28;20037;-66
2021/11/29 11:14:38;;;;;;;4.55;3.00;;;6.00;99.90;;;;;;5061892;28;20439;-66
2021/11/29 11:17:09;;;;;;;4.45;3.30;;;5.90;99.90;;;;;;5063641;28;20041;-65
2021/11/29 11:19:36;;;;;;;4.22;2.90;;;5.90;99.90;;;;;;5061139;28;20045;-66
2021/11/29 11:22:25;;;;;;;3.05;2.75;;;5.90;99.90;;;;;;5062787;28;20159;-66
2021/11/29 11:25:00;;;;;;;3.25;2.95;;;6.00;99.90;;;;;;5059118;28;20162;-66
2021/11/29 11:27:28;;;;;;;;;;;5.90;99.90;;;;;;5060649;28;20056;-66
2021/11/29 11:30:14;;;;;;;4.32;2.17;;;6.00;99.90;;;;;;5062222;28;19923;-66
2021/11/29 11:32:43;;;;;;;4.38;3.97;;;6.00;99.90;;;;;;5061202;28;20078;-66
2021/11/29 11:35:11;;;;;;;4.15;2.97;;;6.00;99.90;;;;;;5060548;28;20127;-66
2021/11/29 11:37:45;;;;;;;5.15;3.35;;;6.00;99.90;;;;;;5060487;28;20110;-66
2021/11/29 11:40:18;;;;;;;3.40;3.05;;;6.00;99.90;;;;;;5062094;28;21018;-66
2021/11/29 11:42:44;;;;;;;5.70;3.08;;;6.00;99.90;;;;;;5060838;28;20040;-66
2021/11/29 11:45:14;;;;;;;6.57;3.90;;;6.00;99.90;;;;;;5044144;28;20044;-66
2021/11/29 11:47:40;;;;;;;3.88;2.92;;;6.10;99.90;;;;;;5058082;28;20037;-66
2021/11/29 11:50:10;;;;;;;4.40;2.45;;;6.20;99.90;;;;;;5060654;28;20055;-66
2021/11/29 11:52:36;;;;;;;3.08;2.78;;;6.30;99.90;;;;;;5061728;28;20044;-66
2021/11/29 11:55:05;;;;;;;4.25;2.38;;;6.50;99.90;;;;;;5090836;27;20048;-66
2021/11/29 11:57:31;;;;;;;3.17;2.75;;;6.70;99.90;;;;;;5089847;28;20495;-66
2021/11/29 12:00:05;;;;;;;3.83;3.17;;;6.80;99.90;;;;;;5059106;28;20565;-66
2021/11/29 12:02:43;;;;;;;3.03;2.53;;;7.00;99.90;;;;;;5060280;28;20037;-66
2021/11/29 12:05:15;;;;;;;3.30;2.85;;;7.10;99.90;;;;;;5060811;28;20422;-66
2021/11/29 12:07:42;;;;;;;3.58;3.03;;;7.20;99.90;;;;;;5059547;28;20029;-66
2021/11/29 12:10:42;;;;;;;3.42;2.60;;;7.30;99.90;;;;;;5056616;28;20048;-66
2021/11/29 12:13:14;;;;;;;4.57;2.58;;;7.20;99.90;;;;;;5071890;28;20052;-66
2021/11/29 12:15:42;;;;;;;6.95;2.70;;;7.10;99.90;;;;;;5059627;28;20052;-66
2021/11/29 12:18:10;;;;;;;8.38;3.22;;;7.10;99.90;;;;;;5059137;28;20514;-66
2021/11/29 12:20:36;;;;;;;2.90;2.40;;;7.10;99.90;;;;;;5059730;28;20062;-66
2021/11/29 12:23:03;;;;;;;2.60;1.98;;;7.00;99.90;;;;;;5059702;28;20056;-66
2021/11/29 12:25:28;;;;;;;5.72;2.15;;;7.00;99.90;;;;;;5062469;28;20130;-66
2021/11/29 12:28:01;;;;;;;2.67;1.83;;;7.00;99.90;;;;;;5088298;28;20037;-66
2021/11/29 12:30:34;;;;;;;4.45;1.80;;;7.00;99.90;;;;;;5060383;28;20048;-66
2021/11/29 12:33:02;;;;;;;6.88;2.30;;;6.80;99.90;;;;;;5059287;28;20045;-66
2021/11/29 12:35:41;;;;;;;3.05;1.42;;;6.80;99.90;;;;;;5057570;28;20841;-65
2021/11/29 12:38:13;;;;;;;4.35;1.55;;;6.80;99.90;;;;;;5057336;28;20056;-66
2021/11/29 12:40:50;;;;;;;1.95;1.42;;;6.80;99.90;;;;;;5059628;28;20039;-66
2021/11/29 12:43:35;;;;;;;5.20;1.70;;;6.70;99.90;;;;;;5063871;28;20047;-66
2021/11/29 12:46:27;;;;;;;2.28;1.27;;;6.80;99.90;;;;;;5062428;28;20515;-66
2021/11/29 12:48:55;;;;;;;2.00;1.20;;;6.70;99.90;;;;;;5064394;28;20048;-66
2021/11/29 12:51:43;;;;;;;3.55;1.70;;;6.70;99.90;;;;;;5063507;28;20072;-66
2021/11/29 12:54:38;;;;;;;2.83;1.55;;;6.80;99.90;;;;;;5096037;28;20072;-66
2021/11/29 12:57:21;;;;;;;2.90;1.60;;;6.80;99.90;;;;;;5057727;28;20064;-66
2021/11/29 12:59:51;;;;;;;3.75;1.92;;;6.70;99.90;;;;;;5060902;28;21073;-66
2021/11/29 13:02:50;;;;;;;3.60;1.52;;;6.70;99.90;;;;;;5062355;28;20051;-66